Chaplin, Canada
Current Conditions -  °F | °C
As of 9:00 PM on Wednesday 22 Oct 2014 (Local Time) from CYYN Reporting Station
Clear Clear  
Wind Chill:   Ceiling: Unl
Heat Index:   Visibility: 9mi
Dew Point:   Wind: 9mph
Humidity: 81%   Direction: 200°SSW
Pressure: 29.79"   Gusts: NA
Location:  50.47°N, 106.67°W
Report Text: CYYN 230300Z AUTO 20008KT 9SM CLR 04/01 A2979 RMK SLP105
Loading
Personal Weather Stations






























Interactive Weather Map
Tropical Storm Tracking
New forecast layout! Learn more

10-Day Weather Forecast

Advertisements
Track Severe Weather on mobile